Walled Lake, Michigan
Current Conditions -  °F | °C
As of 8:53 AM on Saturday 25 Oct 2014 (Local Time) from KPTK Reporting Station
Broken Clouds Broken Clouds  
Wind Chill: 11°   Ceiling: 20000
Heat Index: 11°   Visibility: 7mi
Dew Point:   Wind: 8mph
Humidity: 83%   Direction: 240°WSW
Pressure: 29.81"   Gusts: NA
Location:  42.54°N, 83.47°W
Report Text: KPTK 251253Z 24007KT 7SM FEW041 BKN200 11/08 A2981 RMK AO2 SLP095 T01110083
Loading
Personal Weather Stations






























Interactive Weather Map
Tropical Storm Tracking
New forecast layout! Learn more

10-Day Weather Forecast

Advertisements
Track Severe Weather on mobile